sensor_id;sensor_type;location;lat;lon;timestamp;pressure;altitude;pressure_sealevel;temperature;humidity
41312;BME280;27061;41.648;24.568;2024-03-23T00:54:05;85680.03;;;2.77;60.31
41312;BME280;27061;41.648;24.568;2024-03-23T00:56:31;85725.41;;;3.03;60.84
41312;BME280;27061;41.648;24.568;2024-03-23T00:58:57;85744.75;;;3.21;59.66
41312;BME280;27061;41.648;24.568;2024-03-23T01:01:23;85739.28;;;3.21;60.10
41312;BME280;27061;41.648;24.568;2024-03-23T01:03:49;85744.78;;;3.23;59.98
41312;BME280;27061;41.648;24.568;2024-03-23T01:06:16;85747.50;;;3.21;60.31
41312;BME280;27061;41.648;24.568;2024-03-23T01:08:42;85724.06;;;3.04;60.27
41312;BME280;27061;41.648;24.568;2024-03-23T01:11:08;85688.84;;;2.72;60.70
41312;BME280;27061;41.648;24.568;2024-03-23T01:13:34;85694.34;;;2.76;60.68
41312;BME280;27061;41.648;24.568;2024-03-23T01:16:00;85563.50;;;1.79;60.36
41312;BME280;27061;41.648;24.568;2024-03-23T01:18:27;85689.44;;;2.62;60.03
41312;BME280;27061;41.648;24.568;2024-03-23T01:20:53;85703.28;;;2.78;60.54
41312;BME280;27061;41.648;24.568;2024-03-23T01:23:19;85751.47;;;3.10;60.34
41312;BME280;27061;41.648;24.568;2024-03-23T01:25:55;85668.88;;;2.57;60.49
41312;BME280;27061;41.648;24.568;2024-03-23T01:28:22;85672.91;;;2.52;60.80
41312;BME280;27061;41.648;24.568;2024-03-23T01:30:49;85706.03;;;2.80;60.55
41312;BME280;27061;41.648;24.568;2024-03-23T01:33:15;85721.22;;;2.93;60.34
41312;BME280;27061;41.648;24.568;2024-03-23T01:35:42;85700.41;;;2.66;60.44
41312;BME280;27061;41.648;24.568;2024-03-23T01:38:08;85735.66;;;3.02;60.48
41312;BME280;27061;41.648;24.568;2024-03-23T01:40:34;85723.97;;;2.93;60.39
41312;BME280;27061;41.648;24.568;2024-03-23T01:43:05;85696.31;;;2.67;60.53
41312;BME280;27061;41.648;24.568;2024-03-23T01:45:34;85729.38;;;2.89;60.67
41312;BME280;27061;41.648;24.568;2024-03-23T01:48:00;85732.09;;;2.87;61.19
41312;BME280;27061;41.648;24.568;2024-03-23T01:50:29;85733.44;;;2.86;60.95
41312;BME280;27061;41.648;24.568;2024-03-23T01:53:00;85709.28;;;2.65;61.05
41312;BME280;27061;41.648;24.568;2024-03-23T01:55:28;85699.63;;;2.57;60.82
41312;BME280;27061;41.648;24.568;2024-03-23T01:57:56;85670.06;;;2.42;60.92
41312;BME280;27061;41.648;24.568;2024-03-23T02:00:23;85656.88;;;2.24;60.75
41312;BME280;27061;41.648;24.568;2024-03-23T02:02:49;85712.06;;;2.69;60.73
41312;BME280;27061;41.648;24.568;2024-03-23T02:05:15;85734.69;;;2.77;61.16
41312;BME280;27061;41.648;24.568;2024-03-23T02:07:42;85659.63;;;2.26;61.09
41312;BME280;27061;41.648;24.568;2024-03-23T02:10:11;85663.78;;;2.31;61.17
41312;BME280;27061;41.648;24.568;2024-03-23T02:12:40;85709.94;;;2.63;61.46
41312;BME280;27061;41.648;24.568;2024-03-23T02:15:07;85734.66;;;2.73;61.89
41312;BME280;27061;41.648;24.568;2024-03-23T02:17:35;85713.91;;;2.52;61.44
41312;BME280;27061;41.648;24.568;2024-03-23T02:20:02;85698.75;;;2.41;61.61
41312;BME280;27061;41.648;24.568;2024-03-23T02:22:38;85702.94;;;2.50;61.66
41312;BME280;27061;41.648;24.568;2024-03-23T02:25:05;85700.13;;;2.44;61.87
41312;BME280;27061;41.648;24.568;2024-03-23T02:27:32;85702.13;;;2.39;61.70
41312;BME280;27061;41.648;24.568;2024-03-23T02:29:59;85727.72;;;2.66;61.93
41312;BME280;27061;41.648;24.568;2024-03-23T02:32:25;85694.63;;;2.40;62.04
41312;BME280;27061;41.648;24.568;2024-03-23T02:34:51;85698.09;;;2.42;62.00
41312;BME280;27061;41.648;24.568;2024-03-23T02:37:18;85738.69;;;2.68;61.62
41312;BME280;27061;41.648;24.568;2024-03-23T02:39:44;85731.78;;;2.61;61.91
41312;BME280;27061;41.648;24.568;2024-03-23T02:42:10;85704.94;;;2.43;61.54
41312;BME280;27061;41.648;24.568;2024-03-23T02:44:36;85700.00;;;2.32;61.64
41312;BME280;27061;41.648;24.568;2024-03-23T02:47:02;85720.56;;;2.39;61.35
41312;BME280;27061;41.648;24.568;2024-03-23T02:49:29;85686.78;;;2.14;61.60
41312;BME280;27061;41.648;24.568;2024-03-23T02:51:55;85735.81;;;2.56;61.69
41312;BME280;27061;41.648;24.568;2024-03-23T02:54:21;85697.06;;;2.17;62.47
41312;BME280;27061;41.648;24.568;2024-03-23T02:56:47;85690.84;;;2.11;62.24
41312;BME280;27061;41.648;24.568;2024-03-23T02:59:13;85730.19;;;2.42;62.01
41312;BME280;27061;41.648;24.568;2024-03-23T03:01:39;85678.53;;;2.08;62.00
41312;BME280;27061;41.648;24.568;2024-03-23T03:04:05;85645.94;;;1.72;61.90
41312;BME280;27061;41.648;24.568;2024-03-23T03:06:32;85675.03;;;2.01;61.70
41312;BME280;27061;41.648;24.568;2024-03-23T03:08:58;85717.63;;;2.22;62.27
41312;BME280;27061;41.648;24.568;2024-03-23T03:11:24;85654.28;;;1.82;62.11
41312;BME280;27061;41.648;24.568;2024-03-23T03:13:50;85723.84;;;2.27;62.12
41312;BME280;27061;41.648;24.568;2024-03-23T03:16:17;85732.09;;;2.31;62.53
41312;BME280;27061;41.648;24.568;2024-03-23T03:18:43;85706.50;;;2.08;62.35
41312;BME280;27061;41.648;24.568;2024-03-23T03:21:09;85656.91;;;1.74;62.03
41312;BME280;27061;41.648;24.568;2024-03-23T03:23:38;85734.81;;;2.31;61.98
41312;BME280;27061;41.648;24.568;2024-03-23T03:26:05;85676.13;;;1.84;62.04
41312;BME280;27061;41.648;24.568;2024-03-23T03:28:32;85727.25;;;2.28;62.26
41312;BME280;27061;41.648;24.568;2024-03-23T03:30:59;85672.13;;;1.91;62.46
41312;BME280;27061;41.648;24.568;2024-03-23T03:33:26;85616.97;;;1.46;62.53
41312;BME280;27061;41.648;24.568;2024-03-23T03:35:53;85586.59;;;1.22;62.52
41312;BME280;27061;41.648;24.568;2024-03-23T03:38:20;85735.50;;;2.32;62.68
41312;BME280;27061;41.648;24.568;2024-03-23T03:40:46;85690.06;;;2.04;62.23
41312;BME280;27061;41.648;24.568;2024-03-23T03:43:12;85722.31;;;2.16;62.32
41312;BME280;27061;41.648;24.568;2024-03-23T03:45:38;85674.19;;;1.91;62.68
41312;BME280;27061;41.648;24.568;2024-03-23T03:48:04;85727.91;;;2.26;61.99
41312;BME280;27061;41.648;24.568;2024-03-23T03:50:31;85722.53;;;2.32;61.98
41312;BME280;27061;41.648;24.568;2024-03-23T03:52:57;85727.88;;;2.24;62.06
41312;BME280;27061;41.648;24.568;2024-03-23T03:55:23;85692.19;;;2.10;61.69
41312;BME280;27061;41.648;24.568;2024-03-23T03:57:49;85715.47;;;2.15;61.80
41312;BME280;27061;41.648;24.568;2024-03-23T04:00:15;85651.38;;;1.68;61.71
41312;BME280;27061;41.648;24.568;2024-03-23T04:02:41;85731.34;;;2.27;61.71
41312;BME280;27061;41.648;24.568;2024-03-23T04:05:07;85680.31;;;1.89;61.80
41312;BME280;27061;41.648;24.568;2024-03-23T04:07:34;85655.50;;;1.73;61.53
41312;BME280;27061;41.648;24.568;2024-03-23T04:10:00;85669.34;;;1.85;61.57
41312;BME280;27061;41.648;24.568;2024-03-23T04:12:26;85729.91;;;2.22;61.92
41312;BME280;27061;41.648;24.568;2024-03-23T04:14:52;85681.56;;;1.82;61.52
41312;BME280;27061;41.648;24.568;2024-03-23T04:17:19;85663.78;;;1.77;61.51
41312;BME280;27061;41.648;24.568;2024-03-23T04:19:45;85737.56;;;2.33;61.20
41312;BME280;27061;41.648;24.568;2024-03-23T04:22:11;85698.28;;;2.06;61.36
41312;BME280;27061;41.648;24.568;2024-03-23T04:24:37;85743.72;;;2.32;61.44
41312;BME280;27061;41.648;24.568;2024-03-23T04:27:03;85739.63;;;2.33;61.75
41312;BME280;27061;41.648;24.568;2024-03-23T04:29:29;85683.00;;;1.87;61.67
41312;BME280;27061;41.648;24.568;2024-03-23T04:31:56;85698.91;;;2.03;61.70
41312;BME280;27061;41.648;24.568;2024-03-23T04:34:22;85680.31;;;1.89;61.79
41312;BME280;27061;41.648;24.568;2024-03-23T04:36:49;85687.09;;;1.86;61.90
41312;BME280;27061;41.648;24.568;2024-03-23T04:39:15;85680.84;;;1.77;61.80
41312;BME280;27061;41.648;24.568;2024-03-23T04:41:41;85742.91;;;2.25;61.79
41312;BME280;27061;41.648;24.568;2024-03-23T04:44:07;85733.94;;;2.16;61.87
41312;BME280;27061;41.648;24.568;2024-03-23T04:46:33;85657.38;;;1.60;61.66
41312;BME280;27061;41.648;24.568;2024-03-23T04:48:59;85679.50;;;1.80;61.88
41312;BME280;27061;41.648;24.568;2024-03-23T04:51:25;85750.59;;;2.37;62.03
41312;BME280;27061;41.648;24.568;2024-03-23T04:53:52;85756.09;;;2.39;62.16
41312;BME280;27061;41.648;24.568;2024-03-23T04:56:18;85738.81;;;2.24;62.45
41312;BME280;27061;41.648;24.568;2024-03-23T04:58:44;85713.16;;;1.95;63.06
41312;BME280;27061;41.648;24.568;2024-03-23T05:01:11;85685.03;;;1.84;63.43
41312;BME280;27061;41.648;24.568;2024-03-23T05:03:38;85749.25;;;2.38;64.24
41312;BME280;27061;41.648;24.568;2024-03-23T05:06:04;85730.50;;;2.16;64.84
41312;BME280;27061;41.648;24.568;2024-03-23T05:08:31;85707.00;;;1.95;65.56
41312;BME280;27061;41.648;24.568;2024-03-23T05:10:57;85729.91;;;2.24;66.48
41312;BME280;27061;41.648;24.568;2024-03-23T05:13:23;85742.34;;;2.33;67.83
41312;BME280;27061;41.648;24.568;2024-03-23T05:15:55;85751.50;;;2.53;68.34
41312;BME280;27061;41.648;24.568;2024-03-23T05:18:22;85694.34;;;2.17;67.56
41312;BME280;27061;41.648;24.568;2024-03-23T05:20:48;85751.09;;;2.77;67.99
41312;BME280;27061;41.648;24.568;2024-03-23T05:23:14;85687.63;;;2.27;69.06
41312;BME280;27061;41.648;24.568;2024-03-23T05:25:41;85687.56;;;2.20;68.78
41312;BME280;27061;41.648;24.568;2024-03-23T05:28:07;85722.88;;;2.58;68.85
41312;BME280;27061;41.648;24.568;2024-03-23T05:30:33;85753.31;;;2.91;68.58
41312;BME280;27061;41.648;24.568;2024-03-23T05:32:59;85704.41;;;2.57;70.04
41312;BME280;27061;41.648;24.568;2024-03-23T05:35:25;85754.09;;;3.00;70.34
41312;BME280;27061;41.648;24.568;2024-03-23T05:37:51;85741.78;;;2.97;71.20
41312;BME280;27061;41.648;24.568;2024-03-23T05:40:18;85703.31;;;2.80;70.58
41312;BME280;27061;41.648;24.568;2024-03-23T05:42:44;85725.41;;;3.03;70.55
41312;BME280;27061;41.648;24.568;2024-03-23T05:45:10;85759.31;;;3.38;69.65
41312;BME280;27061;41.648;24.568;2024-03-23T05:47:37;85740.84;;;3.38;69.08
41312;BME280;27061;41.648;24.568;2024-03-23T05:50:03;85712.75;;;3.34;68.21
41312;BME280;27061;41.648;24.568;2024-03-23T05:52:30;85739.72;;;3.65;66.52
41312;BME280;27061;41.648;24.568;2024-03-23T05:54:56;85726.09;;;3.74;64.93
41312;BME280;27061;41.648;24.568;2024-03-23T05:57:22;85752.34;;;4.03;64.01
41312;BME280;27061;41.648;24.568;2024-03-23T05:59:48;85678.09;;;3.64;63.72
41312;BME280;27061;41.648;24.568;2024-03-23T06:02:14;85726.38;;;4.08;62.46
41312;BME280;27061;41.648;24.568;2024-03-23T06:04:40;85740.28;;;4.38;59.63
41312;BME280;27061;41.648;24.568;2024-03-23T06:07:06;85740.38;;;4.59;61.94
41312;BME280;27061;41.648;24.568;2024-03-23T06:09:32;85723.16;;;4.42;59.98
41312;BME280;27061;41.648;24.568;2024-03-23T06:12:00;85747.31;;;4.72;56.38
41312;BME280;27061;41.648;24.568;2024-03-23T06:14:26;85746.03;;;4.91;55.30
41312;BME280;27061;41.648;24.568;2024-03-23T06:16:52;85744.69;;;4.92;58.58
41312;BME280;27061;41.648;24.568;2024-03-23T06:19:18;85728.84;;;4.81;57.15
41312;BME280;27061;41.648;24.568;2024-03-23T06:21:44;85710.34;;;4.83;54.52
41312;BME280;27061;41.648;24.568;2024-03-23T06:24:11;85755.09;;;5.20;52.11
41312;BME280;27061;41.648;24.568;2024-03-23T06:26:39;85663.63;;;4.59;54.28
41312;BME280;27061;41.648;24.568;2024-03-23T06:29:05;85708.41;;;5.08;55.29
41312;BME280;27061;41.648;24.568;2024-03-23T06:31:31;85694.63;;;5.00;53.47
41312;BME280;27061;41.648;24.568;2024-03-23T06:33:57;85744.88;;;5.51;53.61
41312;BME280;27061;41.648;24.568;2024-03-23T06:36:24;85729.78;;;5.48;56.96
41312;BME280;27061;41.648;24.568;2024-03-23T06:38:53;85732.53;;;5.52;59.10
41312;BME280;27061;41.648;24.568;2024-03-23T06:41:19;85681.69;;;5.23;52.57
41312;BME280;27061;41.648;24.568;2024-03-23T06:43:45;85712.63;;;5.53;51.48
41312;BME280;27061;41.648;24.568;2024-03-23T06:46:11;85753.94;;;5.88;55.50
41312;BME280;27061;41.648;24.568;2024-03-23T06:48:38;85733.97;;;5.71;56.11
41312;BME280;27061;41.648;24.568;2024-03-23T06:51:04;85698.25;;;5.65;57.36
41312;BME280;27061;41.648;24.568;2024-03-23T06:53:30;85694.13;;;5.70;52.43
41312;BME280;27061;41.648;24.568;2024-03-23T06:55:59;85742.97;;;6.22;54.54
41312;BME280;27061;41.648;24.568;2024-03-23T06:58:26;85709.28;;;5.98;56.25
41312;BME280;27061;41.648;24.568;2024-03-23T07:00:53;85671.50;;;5.82;57.48
41312;BME280;27061;41.648;24.568;2024-03-23T07:03:20;85695.56;;;6.12;56.71
41312;BME280;27061;41.648;24.568;2024-03-23T07:05:47;85659.16;;;5.99;56.29
41312;BME280;27061;41.648;24.568;2024-03-23T07:08:13;85712.03;;;6.40;54.13
41312;BME280;27061;41.648;24.568;2024-03-23T07:10:44;85703.75;;;6.65;54.35
41312;BME280;27061;41.648;24.568;2024-03-23T07:13:10;85595.25;;;5.95;53.20
41312;BME280;27061;41.648;24.568;2024-03-23T07:15:36;85751.78;;;7.14;54.37
41312;BME280;27061;41.648;24.568;2024-03-23T07:18:02;85685.81;;;6.80;54.19
41312;BME280;27061;41.648;24.568;2024-03-23T07:20:29;85727.00;;;7.20;54.40
41312;BME280;27061;41.648;24.568;2024-03-23T07:22:57;85747.53;;;7.56;52.07
41312;BME280;27061;41.648;24.568;2024-03-23T07:25:23;85713.13;;;7.45;52.59
41312;BME280;27061;41.648;24.568;2024-03-23T07:27:53;85692.53;;;7.33;51.16
41312;BME280;27061;41.648;24.568;2024-03-23T07:30:19;85669.16;;;7.30;51.61
41312;BME280;27061;41.648;24.568;2024-03-23T07:32:45;85670.50;;;7.35;51.73
41312;BME280;27061;41.648;24.568;2024-03-23T07:35:11;85671.78;;;7.53;50.67
41312;BME280;27061;41.648;24.568;2024-03-23T07:37:37;85715.66;;;7.89;50.81
41312;BME280;27061;41.648;24.568;2024-03-23T07:40:04;85719.72;;;8.04;50.48
41312;BME280;27061;41.648;24.568;2024-03-23T07:42:30;85641.44;;;7.59;47.78
41312;BME280;27061;41.648;24.568;2024-03-23T07:44:56;85646.84;;;7.75;49.17
41312;BME280;27061;41.648;24.568;2024-03-23T07:47:23;85705.75;;;8.35;49.21
41312;BME280;27061;41.648;24.568;2024-03-23T07:49:49;85718.03;;;8.48;48.88
41312;BME280;27061;41.648;24.568;2024-03-23T07:52:15;85706.28;;;8.54;47.49
41312;BME280;27061;41.648;24.568;2024-03-23T07:54:41;85682.16;;;8.50;46.62
41312;BME280;27061;41.648;24.568;2024-03-23T07:57:07;85709.47;;;8.85;46.77
41312;BME280;27061;41.648;24.568;2024-03-23T07:59:33;85672.41;;;8.59;44.73
41312;BME280;27061;41.648;24.568;2024-03-23T08:02:00;85678.41;;;8.84;45.20
41312;BME280;27061;41.648;24.568;2024-03-23T08:04:27;85701.75;;;8.97;47.12
41312;BME280;27061;41.648;24.568;2024-03-23T08:06:53;85639.25;;;8.67;44.62
41312;BME280;27061;41.648;24.568;2024-03-23T08:09:19;85674.72;;;9.10;45.91
41312;BME280;27061;41.648;24.568;2024-03-23T08:11:46;85737.66;;;9.63;46.09
41312;BME280;27061;41.648;24.568;2024-03-23T08:14:12;85734.72;;;9.77;44.55
41312;BME280;27061;41.648;24.568;2024-03-23T08:16:39;85655.13;;;9.32;44.20
41312;BME280;27061;41.648;24.568;2024-03-23T08:19:05;85723.63;;;9.79;39.62
41312;BME280;27061;41.648;24.568;2024-03-23T08:21:34;85641.41;;;9.22;41.69
41312;BME280;27061;41.648;24.568;2024-03-23T08:24:00;85592.00;;;8.98;41.19
41312;BME280;27061;41.648;24.568;2024-03-23T08:26:27;85611.75;;;9.21;43.99
41312;BME280;27061;41.648;24.568;2024-03-23T08:28:53;85563.13;;;8.89;40.08
41312;BME280;27061;41.648;24.568;2024-03-23T08:31:19;85623.84;;;9.48;40.40
41312;BME280;27061;41.648;24.568;2024-03-23T08:33:45;85707.47;;;10.00;37.64
41312;BME280;27061;41.648;24.568;2024-03-23T08:36:13;85723.00;;;10.30;41.96
41312;BME280;27061;41.648;24.568;2024-03-23T08:38:40;85676.44;;;9.95;36.98
41312;BME280;27061;41.648;24.568;2024-03-23T08:41:08;85648.13;;;9.93;38.45
41312;BME280;27061;41.648;24.568;2024-03-23T08:43:41;85677.38;;;10.28;39.17
41312;BME280;27061;41.648;24.568;2024-03-23T08:46:08;85715.94;;;10.41;34.25
41312;BME280;27061;41.648;24.568;2024-03-23T08:48:38;85636.53;;;9.82;37.04
41312;BME280;27061;41.648;24.568;2024-03-23T08:51:07;85697.88;;;10.46;38.24
41312;BME280;27061;41.648;24.568;2024-03-23T08:53:35;85659.31;;;10.34;41.69
41312;BME280;27061;41.648;24.568;2024-03-23T08:56:02;85667.31;;;10.52;40.59
41312;BME280;27061;41.648;24.568;2024-03-23T08:58:30;85684.84;;;10.81;41.71
41312;BME280;27061;41.648;24.568;2024-03-23T09:01:02;85695.69;;;10.95;36.13
41312;BME280;27061;41.648;24.568;2024-03-23T09:03:35;85697.22;;;11.27;39.24
41312;BME280;27061;41.648;24.568;2024-03-23T09:06:06;85701.81;;;11.43;40.75
41312;BME280;27061;41.648;24.568;2024-03-23T09:08:32;85559.41;;;10.50;39.49
41312;BME280;27061;41.648;24.568;2024-03-23T09:11:04;85656.59;;;11.14;34.57
41312;BME280;27061;41.648;24.568;2024-03-23T09:13:35;85620.84;;;10.99;33.01
41312;BME280;27061;41.648;24.568;2024-03-23T09:16:02;85631.63;;;11.16;35.01
41312;BME280;27061;41.648;24.568;2024-03-23T09:18:36;85623.53;;;11.43;40.91
41312;BME280;27061;41.648;24.568;2024-03-23T09:21:04;85623.94;;;11.55;38.28
41312;BME280;27061;41.648;24.568;2024-03-23T09:23:30;85660.59;;;11.97;37.97
41312;BME280;27061;41.648;24.568;2024-03-23T09:25:56;85659.25;;;11.94;34.41
41312;BME280;27061;41.648;24.568;2024-03-23T09:28:22;85599.97;;;11.77;37.68
41312;BME280;27061;41.648;24.568;2024-03-23T09:30:49;85648.16;;;12.27;37.27
41312;BME280;27061;41.648;24.568;2024-03-23T09:33:18;85514.06;;;11.42;36.85
41312;BME280;27061;41.648;24.568;2024-03-23T09:35:44;85599.72;;;12.20;38.34
41312;BME280;27061;41.648;24.568;2024-03-23T09:38:10;85650.69;;;12.68;35.59
41312;BME280;27061;41.648;24.568;2024-03-23T09:40:40;85579.38;;;12.29;35.05
41312;BME280;27061;41.648;24.568;2024-03-23T09:43:09;85661.03;;;13.00;35.39
41312;BME280;27061;41.648;24.568;2024-03-23T09:45:41;85631.94;;;12.97;36.24
41312;BME280;27061;41.648;24.568;2024-03-23T09:48:09;85597.72;;;12.76;34.13
41312;BME280;27061;41.648;24.568;2024-03-23T09:50:42;85538.78;;;12.44;33.72
41312;BME280;27061;41.648;24.568;2024-03-23T09:53:10;85602.78;;;12.96;33.30
41312;BME280;27061;41.648;24.568;2024-03-23T09:55:38;85610.16;;;13.06;31.12
41312;BME280;27061;41.648;24.568;2024-03-23T09:58:05;85562.88;;;12.81;29.99
41312;BME280;27061;41.648;24.568;2024-03-23T10:00:32;85602.94;;;13.19;31.25
41312;BME280;27061;41.648;24.568;2024-03-23T10:03:00;85606.34;;;13.22;32.22
41312;BME280;27061;41.648;24.568;2024-03-23T10:05:29;85585.50;;;13.21;32.38
41312;BME280;27061;41.648;24.568;2024-03-23T10:07:58;85564.31;;;13.07;33.63
41312;BME280;27061;41.648;24.568;2024-03-23T10:10:27;85625.22;;;13.44;32.12
41312;BME280;27061;41.648;24.568;2024-03-23T10:12:53;85588.38;;;13.16;32.87
41312;BME280;27061;41.648;24.568;2024-03-23T10:15:24;85630.78;;;13.69;32.11
41312;BME280;27061;41.648;24.568;2024-03-23T10:17:51;85567.38;;;13.24;31.39
41312;BME280;27061;41.648;24.568;2024-03-23T10:20:23;85620.75;;;13.80;32.37
41312;BME280;27061;41.648;24.568;2024-03-23T10:22:49;85621.78;;;13.93;29.56
41312;BME280;27061;41.648;24.568;2024-03-23T10:25:23;85551.56;;;13.43;32.83
41312;BME280;27061;41.648;24.568;2024-03-23T10:27:59;85613.22;;;14.01;31.60
41312;BME280;27061;41.648;24.568;2024-03-23T10:30:29;85510.47;;;13.21;29.33
41312;BME280;27061;41.648;24.568;2024-03-23T10:33:11;85565.94;;;13.76;27.12
41312;BME280;27061;41.648;24.568;2024-03-23T10:35:38;85618.91;;;14.20;26.25
41312;BME280;27061;41.648;24.568;2024-03-23T10:38:07;85617.22;;;14.31;30.62
41312;BME280;27061;41.648;24.568;2024-03-23T10:40:35;85574.47;;;13.93;26.42
41312;BME280;27061;41.648;24.568;2024-03-23T10:43:05;85543.09;;;13.72;29.68
41312;BME280;27061;41.648;24.568;2024-03-23T10:45:35;85610.06;;;14.38;28.83
41312;BME280;27061;41.648;24.568;2024-03-23T10:48:01;85555.38;;;14.04;31.46
41312;BME280;27061;41.648;24.568;2024-03-23T10:50:28;85469.31;;;13.50;31.30
41312;BME280;27061;41.648;24.568;2024-03-23T10:52:58;85527.06;;;13.97;28.66
41312;BME280;27061;41.648;24.568;2024-03-23T10:55:25;85548.22;;;14.11;25.85
41312;BME280;27061;41.648;24.568;2024-03-23T10:57:56;85503.06;;;13.85;28.91
41312;BME280;27061;41.648;24.568;2024-03-23T11:00:27;85516.31;;;14.08;29.27
41312;BME280;27061;41.648;24.568;2024-03-23T11:02:56;85535.28;;;14.24;29.95
41312;BME280;27061;41.648;24.568;2024-03-23T11:07:52;85523.66;;;14.17;27.12
41312;BME280;27061;41.648;24.568;2024-03-23T11:10:29;85494.91;;;14.02;27.19
41312;BME280;27061;41.648;24.568;2024-03-23T11:13:22;85577.13;;;14.68;26.05
41312;BME280;27061;41.648;24.568;2024-03-23T11:15:49;85575.22;;;14.62;25.94
41312;BME280;27061;41.648;24.568;2024-03-23T11:18:21;85485.81;;;14.04;27.61
41312;BME280;27061;41.648;24.568;2024-03-23T11:20:47;85509.63;;;14.21;24.57
41312;BME280;27061;41.648;24.568;2024-03-23T11:23:28;85546.44;;;14.70;23.37
41312;BME280;27061;41.648;24.568;2024-03-23T11:25:54;85531.78;;;14.48;22.10
41312;BME280;27061;41.648;24.568;2024-03-23T11:28:21;85502.75;;;13.96;24.39
41312;BME280;27061;41.648;24.568;2024-03-23T11:30:47;85533.13;;;14.26;24.43
41312;BME280;27061;41.648;24.568;2024-03-23T11:33:14;85561.84;;;14.67;25.82
41312;BME280;27061;41.648;24.568;2024-03-23T11:35:41;85494.94;;;14.23;27.06
41312;BME280;27061;41.648;24.568;2024-03-23T11:38:12;85522.78;;;14.23;21.41
41312;BME280;27061;41.648;24.568;2024-03-23T11:40:44;85553.94;;;14.52;22.95
41312;BME280;27061;41.648;24.568;2024-03-23T11:43:18;85549.16;;;14.72;24.87
41312;BME280;27061;41.648;24.568;2024-03-23T11:45:54;85519.03;;;14.55;27.09
41312;BME280;27061;41.648;24.568;2024-03-23T11:48:50;85538.50;;;14.78;30.23
41312;BME280;27061;41.648;24.568;2024-03-23T11:51:17;85413.81;;;13.91;27.42
41312;BME280;27061;41.648;24.568;2024-03-23T11:53:43;85458.03;;;14.24;30.58
41312;BME280;27061;41.648;24.568;2024-03-23T11:56:10;85307.19;;;13.33;30.21
41312;BME280;27061;41.648;24.568;2024-03-23T11:58:36;85449.78;;;14.43;30.09
41312;BME280;27061;41.648;24.568;2024-03-23T12:01:03;85464.34;;;14.67;26.68
41312;BME280;27061;41.648;24.568;2024-03-23T12:03:31;85503.22;;;14.71;25.00
41312;BME280;27061;41.648;24.568;2024-03-23T12:06:03;85518.19;;;15.02;27.75
41312;BME280;27061;41.648;24.568;2024-03-23T12:08:31;85482.03;;;14.80;25.50
41312;BME280;27061;41.648;24.568;2024-03-23T12:11:10;85443.41;;;14.68;27.56
41312;BME280;27061;41.648;24.568;2024-03-23T12:13:38;85462.84;;;14.70;26.37
41312;BME280;27061;41.648;24.568;2024-03-23T12:16:20;85465.09;;;14.65;29.61
41312;BME280;27061;41.648;24.568;2024-03-23T12:18:50;85516.00;;;15.05;28.87
41312;BME280;27061;41.648;24.568;2024-03-23T12:21:20;85480.38;;;14.87;26.84
41312;BME280;27061;41.648;24.568;2024-03-23T12:23:49;85427.25;;;14.51;27.37
41312;BME280;27061;41.648;24.568;2024-03-23T12:26:16;85499.06;;;15.11;28.71
41312;BME280;27061;41.648;24.568;2024-03-23T12:28:46;85459.44;;;15.09;31.29
41312;BME280;27061;41.648;24.568;2024-03-23T12:31:12;85438.50;;;14.89;30.94
41312;BME280;27061;41.648;24.568;2024-03-23T12:33:38;85462.84;;;15.11;29.99
41312;BME280;27061;41.648;24.568;2024-03-23T12:36:05;85487.00;;;15.37;28.20
41312;BME280;27061;41.648;24.568;2024-03-23T12:38:31;85430.06;;;15.12;29.04
41312;BME280;27061;41.648;24.568;2024-03-23T12:40:57;85392.94;;;14.96;30.66
41312;BME280;27061;41.648;24.568;2024-03-23T12:43:24;85337.97;;;14.55;29.97
41312;BME280;27061;41.648;24.568;2024-03-23T12:45:50;85486.84;;;15.62;25.97
41312;BME280;27061;41.648;24.568;2024-03-23T12:48:19;85461.00;;;15.43;30.06
41312;BME280;27061;41.648;24.568;2024-03-23T12:50:45;85451.97;;;15.43;27.98
41312;BME280;27061;41.648;24.568;2024-03-23T12:53:11;85467.84;;;15.67;27.51
41312;BME280;27061;41.648;24.568;2024-03-23T12:55:37;85430.47;;;15.39;29.56
41312;BME280;27061;41.648;24.568;2024-03-23T12:58:04;85420.47;;;15.46;29.95
41312;BME280;27061;41.648;24.568;2024-03-23T13:00:31;85436.28;;;15.52;28.03
41312;BME280;27061;41.648;24.568;2024-03-23T13:02:57;85464.16;;;15.91;29.32
41312;BME280;27061;41.648;24.568;2024-03-23T13:05:23;85433.31;;;15.77;29.45
41312;BME280;27061;41.648;24.568;2024-03-23T13:07:49;85414.84;;;15.67;27.09
41312;BME280;27061;41.648;24.568;2024-03-23T13:10:16;85404.88;;;15.72;28.49
41312;BME280;27061;41.648;24.568;2024-03-23T13:12:42;85436.16;;;15.93;27.11
41312;BME280;27061;41.648;24.568;2024-03-23T13:15:08;85459.53;;;16.02;27.16
41312;BME280;27061;41.648;24.568;2024-03-23T13:17:35;85412.13;;;15.65;27.63
41312;BME280;27061;41.648;24.568;2024-03-23T13:20:01;85432.72;;;15.74;28.60
41312;BME280;27061;41.648;24.568;2024-03-23T13:22:27;85452.91;;;15.93;29.50
41312;BME280;27061;41.648;24.568;2024-03-23T13:24:54;85379.22;;;15.30;28.53
41312;BME280;27061;41.648;24.568;2024-03-23T13:27:20;85422.34;;;15.52;27.78
41312;BME280;27061;41.648;24.568;2024-03-23T13:29:46;85287.84;;;14.55;31.11
41312;BME280;27061;41.648;24.568;2024-03-23T13:32:13;85444.06;;;15.68;28.51
41312;BME280;27061;41.648;24.568;2024-03-23T13:34:39;85466.94;;;15.72;33.95
41312;BME280;27061;41.648;24.568;2024-03-23T13:37:06;85450.53;;;15.44;34.18
41312;BME280;27061;41.648;24.568;2024-03-23T13:39:33;85430.38;;;15.62;35.11
41312;BME280;27061;41.648;24.568;2024-03-23T13:41:59;85376.34;;;15.13;35.63
41312;BME280;27061;41.648;24.568;2024-03-23T13:44:28;85440.94;;;15.78;36.26
41312;BME280;27061;41.648;24.568;2024-03-23T13:46:54;85446.22;;;15.86;36.40
41312;BME280;27061;41.648;24.568;2024-03-23T13:49:27;85443.34;;;15.88;36.45
41312;BME280;27061;41.648;24.568;2024-03-23T13:52:00;85444.38;;;15.79;34.03